createdAt,value
2022-08-22T00:00:17.936Z,98484.96
2022-08-22T00:02:43.290Z,98511.98
2022-08-22T00:02:49.265Z,98507.39
2022-08-22T00:05:56.388Z,98474.17
2022-08-22T00:11:18.634Z,98471.86
2022-08-22T00:16:34.055Z,98472.48
2022-08-22T00:21:49.986Z,98463.97
2022-08-22T00:27:17.954Z,98465.42
2022-08-22T00:32:35.551Z,98465.34
2022-08-22T00:37:46.291Z,98464.75
2022-08-22T00:43:08.537Z,98465.25
2022-08-22T00:48:33.603Z,98467.45
2022-08-22T00:54:06.801Z,98465.38
2022-08-22T00:59:45.989Z,98465.55
2022-08-22T01:05:00.134Z,98458.60
2022-08-22T01:10:24.043Z,98455.37
2022-08-22T01:15:30.617Z,98456.65
2022-08-22T01:21:11.110Z,98454.80
2022-08-22T01:26:22.511Z,98451.14
2022-08-22T01:32:05.649Z,98447.80
2022-08-22T01:37:33.201Z,98447.73
2022-08-22T01:43:00.908Z,98446.54
2022-08-22T01:48:14.425Z,98445.06
2022-08-22T01:53:36.721Z,98454.98
2022-08-22T01:58:59.835Z,98459.96
2022-08-22T02:04:10.711Z,98459.98
2022-08-22T02:09:40.622Z,98453.13
2022-08-22T02:15:05.914Z,98452.56
2022-08-22T02:20:24.511Z,98450.13
2022-08-22T02:25:33.340Z,98446.46
2022-08-22T02:30:55.133Z,98446.67
2022-08-22T02:36:04.798Z,98449.88
2022-08-22T02:41:19.086Z,98449.13
2022-08-22T02:46:30.419Z,98449.62
2022-08-22T02:51:46.526Z,98452.92
2022-08-22T02:56:57.786Z,98450.22
2022-08-22T03:02:28.144Z,98448.36
2022-08-22T03:07:39.684Z,98457.17
2022-08-22T03:12:45.270Z,98454.98
2022-08-22T03:18:00.818Z,98448.92
2022-08-22T03:23:17.426Z,98449.86
2022-08-22T03:28:27.047Z,98456.78
2022-08-22T03:33:31.843Z,98454.86
2022-08-22T03:38:34.624Z,98455.39
2022-08-22T03:44:08.833Z,98454.68
2022-08-22T03:49:32.950Z,98461.06
2022-08-22T03:55:26.708Z,98465.19
2022-08-22T04:00:37.602Z,98465.83
2022-08-22T04:05:59.170Z,98472.46
2022-08-22T04:11:21.640Z,98479.77
2022-08-22T04:16:51.933Z,98482.75
2022-08-22T04:21:54.926Z,98487.30
2022-08-22T04:27:16.008Z,98484.58
2022-08-22T04:32:36.826Z,98478.42
2022-08-22T04:37:51.864Z,98483.27
2022-08-22T04:43:06.259Z,98484.84
2022-08-22T04:48:33.787Z,98490.35
2022-08-22T04:53:48.795Z,98494.67
2022-08-22T04:59:02.978Z,98495.00
2022-08-22T05:04:10.719Z,98495.96
2022-08-22T05:09:22.431Z,98496.02
2022-08-22T05:14:34.211Z,98498.11
2022-08-22T05:19:43.091Z,98502.06
2022-08-22T05:24:49.865Z,98509.02
2022-08-22T05:30:01.048Z,98516.56
2022-08-22T05:35:08.771Z,98518.86
2022-08-22T05:40:20.511Z,98524.35
2022-08-22T05:45:26.534Z,98530.10
2022-08-22T05:50:35.971Z,98534.41
2022-08-22T05:55:39.041Z,98540.91
2022-08-22T06:00:45.286Z,98545.23
2022-08-22T06:05:53.487Z,98545.35
2022-08-22T06:11:03.405Z,98553.83
2022-08-22T06:16:12.349Z,98550.16
2022-08-22T06:21:33.692Z,98548.77
2022-08-22T06:26:48.890Z,98544.61
2022-08-22T06:31:52.304Z,98548.22
2022-08-22T06:36:57.634Z,98555.98
2022-08-22T06:42:10.370Z,98559.39
2022-08-22T06:47:26.422Z,98551.90
2022-08-22T06:52:33.256Z,98550.71
2022-08-22T06:57:43.909Z,98545.63
2022-08-22T07:02:54.839Z,98551.85
2022-08-22T07:07:58.084Z,98556.45
2022-08-22T07:13:01.698Z,98555.21
2022-08-22T07:18:27.675Z,98558.07
2022-08-22T07:23:46.016Z,98564.40
2022-08-22T07:28:58.523Z,98568.39
2022-08-22T07:34:38.190Z,98575.11
2022-08-22T07:39:58.139Z,98575.54
2022-08-22T07:45:20.812Z,98577.47
2022-08-22T07:50:29.193Z,98576.57
2022-08-22T07:55:32.501Z,98579.55
2022-08-22T08:00:43.453Z,98576.63
2022-08-22T08:05:46.650Z,98578.14
2022-08-22T08:10:52.721Z,98571.98
2022-08-22T08:15:56.186Z,98574.16
2022-08-22T08:21:04.939Z,98570.44
2022-08-22T08:26:16.111Z,98568.26
2022-08-22T08:31:38.171Z,98567.98
2022-08-22T08:37:04.775Z,98568.52
2022-08-22T08:42:22.393Z,98567.04
2022-08-22T08:48:14.671Z,98563.89
2022-08-22T08:53:27.181Z,98564.45
2022-08-22T08:58:35.566Z,98563.41
2022-08-22T09:04:02.773Z,98569.79
2022-08-22T09:09:25.875Z,98570.56
2022-08-22T09:14:50.571Z,98573.55
2022-08-22T09:19:56.318Z,98577.11
2022-08-22T09:25:19.227Z,98578.44
2022-08-22T09:30:55.438Z,98580.39
2022-08-22T09:36:07.337Z,98588.73
2022-08-22T09:41:33.932Z,98596.92
2022-08-22T09:46:56.976Z,98603.79
2022-08-22T09:52:15.111Z,98600.14
2022-08-22T09:57:41.113Z,98600.81
2022-08-22T10:02:49.654Z,98607.53
2022-08-22T10:08:05.535Z,98610.59
2022-08-22T10:13:40.654Z,98604.84
2022-08-22T10:19:05.293Z,98599.93
2022-08-22T10:24:43.838Z,98597.45
2022-08-22T10:30:08.285Z,98600.17
2022-08-22T10:35:33.700Z,98607.20
2022-08-22T10:40:39.590Z,98615.63
2022-08-22T10:45:51.774Z,98624.11
2022-08-22T10:51:08.870Z,98617.27
2022-08-22T10:56:21.673Z,98604.69
2022-08-22T11:01:37.221Z,98597.67
2022-08-22T11:06:47.981Z,98599.81
2022-08-22T11:12:34.885Z,98602.30
2022-08-22T11:18:02.942Z,98600.25
2022-08-22T11:23:32.482Z,98597.27
2022-08-22T11:28:41.223Z,98588.10
2022-08-22T11:34:03.897Z,98578.34
2022-08-22T11:39:43.267Z,98564.16
2022-08-22T11:44:54.682Z,98554.70
2022-08-22T11:50:42.463Z,98552.52
2022-08-22T11:56:05.984Z,98554.17
2022-08-22T12:01:17.331Z,98548.46
2022-08-22T12:06:46.715Z,98544.50
2022-08-22T12:12:01.900Z,98532.37
2022-08-22T12:17:55.860Z,98533.92
2022-08-22T12:23:40.742Z,98527.34
2022-08-22T12:28:56.705Z,98525.02
2022-08-22T12:34:31.575Z,98522.60
2022-08-22T12:39:46.963Z,98527.59
2022-08-22T12:45:21.782Z,98523.85
2022-08-22T12:50:35.481Z,98526.52
2022-08-22T12:55:55.156Z,98526.83
2022-08-22T13:01:06.442Z,98527.74
2022-08-22T13:06:37.974Z,98524.24
2022-08-22T13:11:43.506Z,98531.75
2022-08-22T13:16:52.132Z,98530.39
2022-08-22T13:22:11.725Z,98526.27
2022-08-22T13:27:20.472Z,98525.44
2022-08-22T13:32:39.271Z,98524.91
2022-08-22T13:37:50.252Z,98516.60
2022-08-22T13:43:02.685Z,98516.61
2022-08-22T13:48:12.060Z,98512.25
2022-08-22T13:53:29.923Z,98506.23
2022-08-22T13:58:45.442Z,98509.45
2022-08-22T14:03:59.443Z,98504.70
2022-08-22T14:09:29.432Z,98498.83
2022-08-22T14:14:38.814Z,98494.21
2022-08-22T14:19:58.774Z,98485.56
2022-08-22T14:25:24.009Z,98492.02
2022-08-22T14:30:54.354Z,98496.97
2022-08-22T14:36:13.328Z,98496.48
2022-08-22T14:41:52.621Z,98501.61
2022-08-22T14:47:00.224Z,98503.30
2022-08-22T14:52:10.305Z,98501.70
2022-08-22T14:57:22.685Z,98495.90
2022-08-22T15:02:29.862Z,98494.09
2022-08-22T15:07:36.513Z,98493.16
2022-08-22T15:12:48.734Z,98493.08
2022-08-22T15:17:52.825Z,98497.14
2022-08-22T15:23:03.669Z,98495.02
2022-08-22T15:28:14.486Z,98502.23
2022-08-22T15:33:29.379Z,98502.12
2022-08-22T15:38:38.986Z,98505.18
2022-08-22T15:43:49.352Z,98501.44
2022-08-22T15:49:19.688Z,98503.98
2022-08-22T15:54:46.953Z,98504.93
2022-08-22T15:59:57.795Z,98505.95
2022-08-22T16:05:09.657Z,98510.48
2022-08-22T16:10:21.280Z,98516.30
2022-08-22T16:15:56.318Z,98519.62
2022-08-22T16:21:04.630Z,98523.38
2022-08-22T16:26:09.590Z,98529.54
2022-08-22T16:31:18.055Z,98525.23
2022-08-22T16:36:21.193Z,98536.02
2022-08-22T16:41:34.771Z,98533.09
2022-08-22T16:46:41.740Z,98517.36
2022-08-22T16:52:26.250Z,98511.92
2022-08-22T16:58:04.991Z,98509.58
2022-08-22T17:03:27.523Z,98521.02
2022-08-22T17:08:45.419Z,98523.48
2022-08-22T17:14:09.715Z,98531.38
2022-08-22T17:19:32.334Z,98532.91
2022-08-22T17:24:46.752Z,98541.89
2022-08-22T17:30:16.241Z,98550.31
2022-08-22T17:35:44.324Z,98546.30
2022-08-22T17:41:18.461Z,98548.77
2022-08-22T17:46:36.418Z,98549.81
2022-08-22T17:52:07.487Z,98554.55
2022-08-22T17:57:38.118Z,98556.95
2022-08-22T18:02:43.515Z,98565.86
2022-08-22T18:07:55.213Z,98589.82
2022-08-22T18:13:21.565Z,98593.27
2022-08-22T18:18:35.182Z,98588.67
2022-08-22T18:23:54.874Z,98583.70
2022-08-22T18:29:01.030Z,98579.45
2022-08-22T18:34:16.247Z,98577.96
2022-08-22T18:39:22.115Z,98583.16
2022-08-22T18:44:27.683Z,98581.66
2022-08-22T18:49:30.800Z,98575.75
2022-08-22T18:54:49.025Z,98586.93
2022-08-22T19:00:00.929Z,98589.27
2022-08-22T19:05:13.265Z,98585.62
2022-08-22T19:10:34.535Z,98578.73
2022-08-22T19:15:56.100Z,98588.05
2022-08-22T19:21:45.015Z,98595.77
2022-08-22T19:27:10.095Z,98608.87
2022-08-22T19:32:44.770Z,98623.52
2022-08-22T19:38:00.711Z,98624.50
2022-08-22T19:43:18.665Z,98638.48
2022-08-22T19:48:31.658Z,98630.77
2022-08-22T19:53:42.300Z,98614.59
2022-08-22T19:58:54.923Z,98605.08
2022-08-22T20:04:10.038Z,98586.81
2022-08-22T20:09:32.859Z,98582.64
2022-08-22T20:14:40.212Z,98604.75
2022-08-22T20:25:41.481Z,98679.81
2022-08-22T20:30:47.033Z,98669.05
2022-08-22T20:35:59.234Z,98654.12
2022-08-22T20:41:17.412Z,98682.66
2022-08-22T20:46:53.497Z,98653.30
2022-08-22T20:52:04.952Z,98667.06
2022-08-22T20:57:19.397Z,98661.92
2022-08-22T21:02:29.763Z,98631.31
2022-08-22T21:07:42.537Z,98640.77
2022-08-22T21:13:11.322Z,98629.89
2022-08-22T21:18:36.844Z,98623.48
2022-08-22T21:23:59.911Z,98618.15
2022-08-22T21:29:05.985Z,98624.05
2022-08-22T21:34:18.592Z,98634.36
2022-08-22T21:39:25.728Z,98648.97
2022-08-22T21:44:31.140Z,98647.39
2022-08-22T21:49:34.202Z,98645.77
2022-08-22T21:54:40.788Z,98620.52
2022-08-22T21:59:51.968Z,98596.68
2022-08-22T22:05:11.720Z,98579.23
2022-08-22T22:10:19.418Z,98570.88
2022-08-22T22:15:25.981Z,98559.50
2022-08-22T22:20:28.973Z,98549.21
2022-08-22T22:25:38.797Z,98549.83
2022-08-22T22:30:45.626Z,98532.15
2022-08-22T22:35:49.681Z,98523.11
2022-08-22T22:40:53.392Z,98525.88
2022-08-22T22:45:56.575Z,98534.00
2022-08-22T22:50:59.614Z,98529.47
2022-08-22T22:56:02.890Z,98523.73
2022-08-22T23:01:18.654Z,98530.77
2022-08-22T23:06:23.554Z,98528.08
2022-08-22T23:11:29.888Z,98531.95
2022-08-22T23:16:37.155Z,98535.64
2022-08-22T23:21:41.655Z,98536.23
2022-08-22T23:26:44.961Z,98531.80
2022-08-22T23:31:55.899Z,98521.58
2022-08-22T23:37:00.790Z,98524.48
2022-08-22T23:42:07.382Z,98536.55
2022-08-22T23:47:10.967Z,98547.02
2022-08-22T23:52:14.195Z,98563.75
2022-08-22T23:57:17.744Z,98564.14
